Time;durP1;ratioP1;P1;durP2;ratioP2;P2;SDS_P1;SDS_P2;PMS_P1;PMS_P2;Temp;Humidity;BMP_temperature;BMP_pressure;BME280_temperature;BME280_humidity;BME280_pressure;Samples;Min_cycle;Max_cycle;Signal;HPM_P1;HPM_P2
2021/03/22 00:01:40;;;;;;;;;;;4.20;93.10;;;;;;4993243;28;92635;-68
2021/03/22 00:04:05;;;;;;;;;;;4.20;93.10;;;;;;4991143;28;92213;-68
2021/03/22 00:06:31;;;;;;;;;;;4.20;93.10;;;;;;4991145;28;92791;-68
2021/03/22 00:08:56;;;;;;;;;;;4.20;93.00;;;;;;4992137;28;93071;-68
2021/03/22 00:11:22;;;;;;;;;;;4.20;93.00;;;;;;4994042;28;93111;-68
2021/03/22 00:13:48;;;;;;;;;;;4.20;93.00;;;;;;4997253;28;93006;-68
2021/03/22 00:16:14;;;;;;;;;;;4.20;93.00;;;;;;4995270;28;93079;-68
2021/03/22 00:18:40;;;;;;;;;;;4.20;93.00;;;;;;4966005;28;780839;-68
2021/03/22 00:21:06;;;;;;;;;;;4.20;93.00;;;;;;4993491;28;93247;-68
2021/03/22 00:23:32;;;;;;;;;;;4.20;93.00;;;;;;4994310;28;92958;-68
2021/03/22 00:25:58;;;;;;;;;;;4.20;93.00;;;;;;4992460;28;92169;-68
2021/03/22 00:28:24;;;;;;;;;;;4.20;93.00;;;;;;4993255;28;92209;-68
2021/03/22 00:30:50;;;;;;;;;;;4.20;93.30;;;;;;4993571;28;92241;-68
2021/03/22 00:33:16;;;;;;;;;;;4.20;93.00;;;;;;4993099;28;93745;-68
2021/03/22 00:35:42;;;;;;;;;;;4.20;93.00;;;;;;4997729;28;92253;-68
2021/03/22 00:38:08;;;;;;;;;;;4.20;93.00;;;;;;4995100;28;92697;-68
2021/03/22 00:40:34;;;;;;;;;;;4.20;93.00;;;;;;4995926;28;92216;-68
2021/03/22 00:43:00;;;;;;;;;;;4.10;93.00;;;;;;4995097;28;92200;-68
2021/03/22 00:45:26;;;;;;;;;;;4.20;93.00;;;;;;4995768;28;92735;-68
2021/03/22 00:47:52;;;;;;;;;;;4.20;93.00;;;;;;4996606;28;93852;-68
2021/03/22 00:50:29;;;;;;;;;;;4.20;93.00;;;;;;4996289;28;93033;-68
2021/03/22 00:52:54;;;;;;;;;;;4.10;93.00;;;;;;4996250;28;93217;-68
2021/03/22 00:55:20;;;;;;;;;;;4.20;93.00;;;;;;4994220;28;93409;-68
2021/03/22 00:57:46;;;;;;;;;;;4.20;93.00;;;;;;4994216;28;94657;-68
2021/03/22 01:00:19;;;;;;;;;;;4.10;93.00;;;;;;4992645;28;92182;-68
2021/03/22 01:02:44;;;;;;;;;;;4.10;93.00;;;;;;4993487;28;94507;-68
2021/03/22 01:05:10;;;;;;;;;;;4.10;93.00;;;;;;4991691;28;92867;-68
2021/03/22 01:07:35;;;;;;;;;;;4.10;93.00;;;;;;4992999;28;92190;-68
2021/03/22 01:10:01;;;;;;;;;;;4.20;93.00;;;;;;4995752;28;92211;-68
2021/03/22 01:12:26;;;;;;;;;;;4.10;92.90;;;;;;4994453;28;92166;-68
2021/03/22 01:14:52;;;;;;;;;;;4.10;92.90;;;;;;4996495;28;91576;-68
2021/03/22 01:17:17;;;;;;;;;;;4.10;92.90;;;;;;5000000;28;92193;-68
2021/03/22 01:19:43;;;;;;;;;;;4.10;93.00;;;;;;4998335;28;92250;-68
2021/03/22 01:22:08;;;;;;;;;;;4.10;92.90;;;;;;4999081;28;93138;-68
2021/03/22 01:24:34;;;;;;;;;;;4.10;93.00;;;;;;4995761;28;93135;-68
2021/03/22 01:27:01;;;;;;;;;;;4.10;92.90;;;;;;4995351;28;92171;-68
2021/03/22 01:29:32;;;;;;;;;;;4.10;92.90;;;;;;4994820;28;92484;-68
2021/03/22 01:31:59;;;;;;;;;;;4.10;93.00;;;;;;4995103;28;93250;-68
2021/03/22 01:34:26;;;;;;;;;;;4.10;93.00;;;;;;4999402;28;92223;-68
2021/03/22 01:36:52;;;;;;;;;;;4.10;93.00;;;;;;4997322;28;92885;-68
2021/03/22 01:39:20;;;;;;;;;;;4.10;93.00;;;;;;4999437;28;91982;-68
2021/03/22 01:42:04;;;;;;;;;;;4.10;93.00;;;;;;4996171;28;93788;-68
2021/03/22 01:44:34;;;;;;;;;;;4.10;93.00;;;;;;4996914;28;93221;-68
2021/03/22 01:47:02;;;;;;;;;;;4.10;93.00;;;;;;4998121;28;93204;-68
2021/03/22 01:49:29;;;;;;;;;;;4.10;93.00;;;;;;4995606;28;93449;-68
2021/03/22 01:51:55;;;;;;;;;;;4.10;92.90;;;;;;4994155;28;93333;-68
2021/03/22 01:54:21;;;;;;;;;;;4.10;92.90;;;;;;4995242;28;92179;-68
2021/03/22 01:56:47;;;;;;;;;;;4.10;93.00;;;;;;4994542;28;92888;-68
2021/03/22 01:59:14;;;;;;;;;;;4.00;93.00;;;;;;4995218;28;93407;-68
2021/03/22 02:01:41;;;;;;;;;;;4.10;93.00;;;;;;4997475;28;92211;-68
2021/03/22 02:04:06;;;;;;;;;;;4.00;92.90;;;;;;4998583;28;92264;-68
2021/03/22 02:06:33;;;;;;;;;;;4.00;92.90;;;;;;4997592;28;92177;-68
2021/03/22 02:09:00;;;;;;;;;;;4.00;93.20;;;;;;4995826;28;92220;-67
2021/03/22 02:11:27;;;;;;;;;;;4.00;92.90;;;;;;4994303;28;93697;-68
2021/03/22 02:13:55;;;;;;;;;;;4.00;92.90;;;;;;4996980;28;93087;-68
2021/03/22 02:16:39;;;;;;;;;;;4.00;92.90;;;;;;4997884;28;92457;-67
2021/03/22 02:19:07;;;;;;;;;;;4.00;92.90;;;;;;4993706;28;93082;-68
2021/03/22 02:21:54;;;;;;;;;;;4.00;92.90;;;;;;4996756;28;93561;-67
2021/03/22 02:24:38;;;;;;;;;;;4.00;92.90;;;;;;5001143;28;93196;-67
2021/03/22 02:27:13;;;;;;;;;;;4.00;92.90;;;;;;4995052;28;92228;-68
2021/03/22 02:29:47;;;;;;;;;;;4.00;92.90;;;;;;4998589;28;92068;-68
2021/03/22 02:32:20;;;;;;;;;;;4.00;92.90;;;;;;4993805;28;92719;-68
2021/03/22 02:34:51;;;;;;;;;;;4.00;92.90;;;;;;4998436;28;92339;-68
2021/03/22 02:37:16;;;;;;;;;;;4.00;92.90;;;;;;4994442;28;94307;-68
2021/03/22 02:39:57;;;;;;;;;;;4.00;92.90;;;;;;4993864;28;92691;-68
2021/03/22 02:42:23;;;;;;;;;;;4.00;92.90;;;;;;4994914;28;92205;-68
2021/03/22 02:44:49;;;;;;;;;;;4.00;93.20;;;;;;4994313;28;92212;-68
2021/03/22 02:47:20;;;;;;;;;;;4.00;93.10;;;;;;4997248;28;93106;-67
2021/03/22 02:49:47;;;;;;;;;;;4.00;92.90;;;;;;4995331;28;92468;-68
2021/03/22 02:52:19;;;;;;;;;;;4.00;92.90;;;;;;4996869;28;92633;-68
2021/03/22 02:55:02;;;;;;;;;;;4.00;92.90;;;;;;4995682;28;91431;-68
2021/03/22 02:57:34;;;;;;;;;;;4.00;92.90;;;;;;4995904;28;93736;-68
2021/03/22 03:00:09;;;;;;;;;;;3.90;92.90;;;;;;4997170;28;93227;-67
2021/03/22 03:02:35;;;;;;;;;;;3.90;92.90;;;;;;4994798;28;94165;-68
2021/03/22 03:05:17;;;;;;;;;;;3.90;92.90;;;;;;4994556;28;93555;-68
2021/03/22 03:07:43;;;;;;;;;;;3.90;92.90;;;;;;4997270;28;92931;-68
2021/03/22 03:10:10;;;;;;;;;;;3.90;92.90;;;;;;5000929;28;92225;-68
2021/03/22 03:12:36;;;;;;;;;;;3.90;92.90;;;;;;4996169;28;94615;-68
2021/03/22 03:15:03;;;;;;;;;;;3.90;92.90;;;;;;4997610;28;92158;-68
2021/03/22 03:17:28;;;;;;;;;;;3.90;93.00;;;;;;4996092;28;94351;-68
2021/03/22 03:19:54;;;;;;;;;;;3.90;92.90;;;;;;4997600;28;92106;-68
2021/03/22 03:22:20;;;;;;;;;;;3.90;92.90;;;;;;4996384;28;93877;-68
2021/03/22 03:24:46;;;;;;;;;;;3.90;92.90;;;;;;4997843;28;92456;-68
2021/03/22 03:27:13;;;;;;;;;;;3.90;92.90;;;;;;4995644;28;93172;-67
2021/03/22 03:29:39;;;;;;;;;;;3.90;92.90;;;;;;4998267;28;92208;-68
2021/03/22 03:32:05;;;;;;;;;;;3.90;92.90;;;;;;4994674;28;92691;-68
2021/03/22 03:34:31;;;;;;;;;;;3.90;92.90;;;;;;4994011;28;92193;-67
2021/03/22 03:36:56;;;;;;;;;;;3.90;92.90;;;;;;4994275;28;92162;-68
2021/03/22 03:39:22;;;;;;;;;;;3.90;93.00;;;;;;4994798;28;92667;-68
2021/03/22 03:41:47;;;;;;;;;;;3.90;93.00;;;;;;4995573;28;92216;-68
2021/03/22 03:44:13;;;;;;;;;;;3.90;92.90;;;;;;4996457;28;91807;-68
2021/03/22 03:46:40;;;;;;;;;;;3.90;92.90;;;;;;4994054;28;93262;-68
2021/03/22 03:49:06;;;;;;;;;;;3.80;93.00;;;;;;4992612;28;92163;-68
2021/03/22 03:51:32;;;;;;;;;;;3.90;92.90;;;;;;4997912;28;94831;-68
2021/03/22 03:53:58;;;;;;;;;;;3.80;92.90;;;;;;4996375;28;92208;-68
2021/03/22 03:56:25;;;;;;;;;;;3.80;92.90;;;;;;4995889;28;92236;-68
2021/03/22 03:58:51;;;;;;;;;;;3.80;92.90;;;;;;4994059;28;93282;-68
2021/03/22 04:01:17;;;;;;;;;;;3.90;92.90;;;;;;4995767;28;92199;-68
2021/03/22 04:03:42;;;;;;;;;;;3.90;93.00;;;;;;4995774;28;92307;-68
2021/03/22 04:06:08;;;;;;;;;;;3.80;93.00;;;;;;4996520;28;93209;-68
2021/03/22 04:08:35;;;;;;;;;;;3.80;92.90;;;;;;4995947;28;92433;-68
2021/03/22 04:11:02;;;;;;;;;;;3.80;93.00;;;;;;4996613;28;93617;-68
2021/03/22 04:13:28;;;;;;;;;;;3.80;92.90;;;;;;4997027;28;92643;-68
2021/03/22 04:15:54;;;;;;;;;;;3.80;92.90;;;;;;4994511;28;93109;-68
2021/03/22 04:18:20;;;;;;;;;;;3.80;92.90;;;;;;4994310;28;93226;-68
2021/03/22 04:20:46;;;;;;;;;;;3.80;93.00;;;;;;4996237;28;92212;-68
2021/03/22 04:23:11;;;;;;;;;;;3.80;92.90;;;;;;4995957;28;92865;-68
2021/03/22 04:25:37;;;;;;;;;;;3.80;93.00;;;;;;4992572;28;93271;-68
2021/03/22 04:28:03;;;;;;;;;;;3.80;93.00;;;;;;4993044;28;92197;-68
2021/03/22 04:30:28;;;;;;;;;;;3.80;92.90;;;;;;4993745;28;92707;-68
2021/03/22 04:32:54;;;;;;;;;;;3.80;92.90;;;;;;4994925;28;92470;-68
2021/03/22 04:35:21;;;;;;;;;;;3.80;92.90;;;;;;4997871;28;92228;-68
2021/03/22 04:37:47;;;;;;;;;;;3.80;92.90;;;;;;4991380;28;93274;-68
2021/03/22 04:40:12;;;;;;;;;;;3.80;93.00;;;;;;4993718;28;94749;-68
2021/03/22 04:42:38;;;;;;;;;;;3.80;93.00;;;;;;4996484;28;96513;-68
2021/03/22 04:45:05;;;;;;;;;;;3.80;92.90;;;;;;4998300;28;93265;-68
2021/03/22 04:47:30;;;;;;;;;;;3.80;92.90;;;;;;4996709;28;92201;-68
2021/03/22 04:49:56;;;;;;;;;;;3.80;93.00;;;;;;4996418;28;92277;-68
2021/03/22 04:52:21;;;;;;;;;;;3.80;92.90;;;;;;4994942;28;93353;-68
2021/03/22 04:54:47;;;;;;;;;;;3.80;92.90;;;;;;4995589;28;93770;-68
2021/03/22 04:57:12;;;;;;;;;;;3.80;92.90;;;;;;4998153;28;92406;-68
2021/03/22 04:59:39;;;;;;;;;;;3.80;92.90;;;;;;4995218;28;93347;-68
2021/03/22 05:02:04;;;;;;;;;;;3.80;92.90;;;;;;4997192;28;93330;-68
2021/03/22 05:04:30;;;;;;;;;;;3.80;92.90;;;;;;4994185;28;94225;-68
2021/03/22 05:06:55;;;;;;;;;;;3.80;92.90;;;;;;4996089;28;92210;-68
2021/03/22 05:09:21;;;;;;;;;;;3.80;92.90;;;;;;4995579;28;92193;-68
2021/03/22 05:11:46;;;;;;;;;;;3.80;92.90;;;;;;4994540;28;92647;-68
2021/03/22 05:14:13;;;;;;;;;;;3.80;92.90;;;;;;4996153;28;92654;-68
2021/03/22 05:16:38;;;;;;;;;;;3.80;92.90;;;;;;4997726;28;93365;-68
2021/03/22 05:19:04;;;;;;;;;;;3.80;92.90;;;;;;4995905;28;92173;-68
2021/03/22 05:21:29;;;;;;;;;;;3.80;92.90;;;;;;4997723;28;91911;-68
2021/03/22 05:23:55;;;;;;;;;;;3.80;92.90;;;;;;4997866;28;92680;-68
2021/03/22 05:26:20;;;;;;;;;;;3.80;92.90;;;;;;4999526;28;93827;-68
2021/03/22 05:28:46;;;;;;;;;;;3.80;92.80;;;;;;4996309;28;93873;-68
2021/03/22 05:31:11;;;;;;;;;;;3.80;92.90;;;;;;4995980;28;92854;-68
2021/03/22 05:33:37;;;;;;;;;;;3.80;92.80;;;;;;4995190;28;92191;-68
2021/03/22 05:36:03;;;;;;;;;;;3.80;92.90;;;;;;4996387;28;92227;-68
2021/03/22 05:38:29;;;;;;;;;;;3.80;92.90;;;;;;4999575;28;93171;-69
2021/03/22 05:40:56;;;;;;;;;;;3.80;92.90;;;;;;4997636;28;92472;-68
2021/03/22 05:43:25;;;;;;;;;;;3.80;92.80;;;;;;4995641;28;92688;-68
2021/03/22 05:46:09;;;;;;;;;;;3.80;92.80;;;;;;4998017;28;93087;-68
2021/03/22 05:48:52;;;;;;;;;;;3.80;92.80;;;;;;4996702;28;92229;-68
2021/03/22 05:51:21;;;;;;;;;;;3.80;92.80;;;;;;4994833;28;93389;-68
2021/03/22 05:53:53;;;;;;;;;;;3.70;92.80;;;;;;4997447;28;93146;-68
2021/03/22 05:56:26;;;;;;;;;;;3.70;92.80;;;;;;4997723;28;94563;-68
2021/03/22 05:59:07;;;;;;;;;;;3.80;92.80;;;;;;4994075;28;92275;-68
2021/03/22 06:01:37;;;;;;;;;;;3.70;92.80;;;;;;4997285;28;92727;-68
2021/03/22 06:04:05;;;;;;;;;;;3.70;92.80;;;;;;4993751;28;93511;-68
2021/03/22 06:06:38;;;;;;;;;;;3.70;92.90;;;;;;4997333;28;92232;-68
2021/03/22 06:09:12;;;;;;;;;;;3.70;92.90;;;;;;4997229;28;93113;-68
2021/03/22 06:11:47;;;;;;;;;;;3.70;92.90;;;;;;4995142;28;92735;-68
2021/03/22 06:14:51;;;;;;;;;;;3.80;92.80;;;;;;4995452;28;92664;-68
2021/03/22 06:17:35;;;;;;;;;;;3.80;92.80;;;;;;4936950;28;93731;-68
2021/03/22 06:20:01;;;;;;;;;;;3.80;92.80;;;;;;4933754;28;94199;-68
2021/03/22 06:22:31;;;;;;;;;;;3.70;92.70;;;;;;4969325;28;92235;-68
2021/03/22 06:24:57;;;;;;;;;;;3.70;92.70;;;;;;4997296;28;92419;-68
2021/03/22 06:27:23;;;;;;;;;;;3.70;92.70;;;;;;4994628;28;92298;-68
2021/03/22 06:29:51;;;;;;;;;;;3.70;92.70;;;;;;4995229;28;92212;-68
2021/03/22 06:32:18;;;;;;;;;;;3.70;92.70;;;;;;4993374;28;94287;-68
2021/03/22 06:34:44;;;;;;;;;;;3.70;92.70;;;;;;4998741;28;92245;-68
2021/03/22 06:37:10;;;;;;;;;;;3.70;92.70;;;;;;4998665;28;91841;-68
2021/03/22 06:39:36;;;;;;;;;;;3.70;92.70;;;;;;4995801;28;92700;-68
2021/03/22 06:42:14;;;;;;;;;;;3.70;92.70;;;;;;4997559;28;92241;-68
2021/03/22 06:44:40;;;;;;;;;;;3.70;92.70;;;;;;4994434;28;93137;-68
2021/03/22 06:47:12;;;;;;;;;;;3.70;92.70;;;;;;4998212;28;93200;-68
2021/03/22 06:49:39;;;;;;;;;;;3.70;92.70;;;;;;4995675;28;92492;-68
2021/03/22 06:52:06;;;;;;;;;;;3.70;92.60;;;;;;4994628;28;92816;-68
2021/03/22 06:54:43;;;;;;;;;;;3.70;92.70;;;;;;4993904;28;92539;-68
2021/03/22 06:57:08;;;;;;;;;;;3.70;92.70;;;;;;4993707;28;92641;-68
2021/03/22 06:59:34;;;;;;;;;;;3.70;92.70;;;;;;4994307;28;92687;-68
2021/03/22 07:02:21;;;;;;;;;;;3.70;92.60;;;;;;4996291;28;91460;-68
2021/03/22 07:04:46;;;;;;;;;;;3.70;92.70;;;;;;4995581;28;92194;-68
2021/03/22 07:07:38;;;;;;;;;;;3.70;92.70;;;;;;4995599;28;92605;-68
2021/03/22 07:10:15;;;;;;;;;;;3.70;92.70;;;;;;4995195;28;93206;-68
2021/03/22 07:12:41;;;;;;;;;;;3.70;92.60;;;;;;4992381;28;93025;-68
2021/03/22 07:15:14;;;;;;;;;;;3.70;92.70;;;;;;4995616;28;93435;-68
2021/03/22 07:17:39;;;;;;;;;;;3.70;92.70;;;;;;4995887;28;92460;-67
2021/03/22 07:20:11;;;;;;;;;;;3.70;92.60;;;;;;4995652;28;93203;-68
2021/03/22 07:22:37;;;;;;;;;;;3.70;92.60;;;;;;4995022;28;92179;-68
2021/03/22 07:25:06;;;;;;;;;;;3.70;92.60;;;;;;4995762;28;92341;-68
2021/03/22 07:27:37;;;;;;;;;;;3.70;92.60;;;;;;4994164;28;93306;-68
2021/03/22 07:30:15;;;;;;;;;;;3.70;92.60;;;;;;4996429;28;92134;-68
2021/03/22 07:32:48;;;;;;;;;;;3.70;92.70;;;;;;4994737;28;92800;-68
2021/03/22 07:35:32;;;;;;;;;;;3.70;92.70;;;;;;4994883;28;93135;-68
2021/03/22 07:38:16;;;;;;;;;;;3.70;92.60;;;;;;4992839;28;94751;-68
2021/03/22 07:40:42;;;;;;;;;;;3.70;92.60;;;;;;4993131;28;93165;-67
2021/03/22 07:43:10;;;;;;;;;;;3.70;92.60;;;;;;4993130;28;92260;-68
2021/03/22 07:45:36;;;;;;;;;;;3.70;92.60;;;;;;4995014;28;92554;-68
2021/03/22 07:48:26;;;;;;;;;;;3.70;92.60;;;;;;4993182;28;92976;-67
2021/03/22 07:51:10;;;;;;;;;;;3.70;92.60;;;;;;4995467;28;92179;-67
2021/03/22 07:53:35;;;;;;;;;;;3.70;92.60;;;;;;4999884;28;92286;-67
2021/03/22 07:56:09;;;;;;;;;;;3.70;92.60;;;;;;4996098;28;92186;-67
2021/03/22 07:58:48;;;;;;;;;;;3.70;92.70;;;;;;4993570;28;93121;-68
2021/03/22 08:01:13;;;;;;;;;;;3.70;92.70;;;;;;4992614;28;94271;-67
2021/03/22 08:03:39;;;;;;;;;;;3.70;92.60;;;;;;4992960;28;92238;-67
2021/03/22 08:06:10;;;;;;;;;;;3.70;92.50;;;;;;4992327;28;92167;-67
2021/03/22 08:08:36;;;;;;;;;;;3.70;92.60;;;;;;4994129;28;93805;-67
2021/03/22 08:11:05;;;;;;;;;;;3.80;92.60;;;;;;4996636;28;92810;-68
2021/03/22 08:13:43;;;;;;;;;;;3.80;92.50;;;;;;4992768;28;93734;-68
2021/03/22 08:16:11;;;;;;;;;;;3.80;92.50;;;;;;4998529;28;93719;-68
2021/03/22 08:18:43;;;;;;;;;;;3.80;92.50;;;;;;4995205;28;92067;-68
2021/03/22 08:21:18;;;;;;;;;;;3.80;92.40;;;;;;4998760;28;94235;-68
2021/03/22 08:23:56;;;;;;;;;;;3.80;92.40;;;;;;4998816;28;93965;-68
2021/03/22 08:26:25;;;;;;;;;;;3.80;92.40;;;;;;4996955;28;93199;-68
2021/03/22 08:29:06;;;;;;;;;;;3.90;92.40;;;;;;4997813;28;92779;-67
2021/03/22 08:31:42;;;;;;;;;;;3.80;92.40;;;;;;4997833;28;92200;-68
2021/03/22 08:34:11;;;;;;;;;;;3.80;92.40;;;;;;4997188;28;92274;-67
2021/03/22 08:36:56;;;;;;;;;;;3.80;92.40;;;;;;4998260;28;92272;-67
2021/03/22 08:39:31;;;;;;;;;;;3.90;92.40;;;;;;5002126;28;93908;-67
2021/03/22 08:42:04;;;;;;;;;;;3.90;92.30;;;;;;4997072;28;94031;-68
2021/03/22 08:44:38;;;;;;;;;;;3.90;92.30;;;;;;4996917;28;91418;-67
2021/03/22 08:47:04;;;;;;;;;;;3.90;92.30;;;;;;4997711;28;92171;-68
2021/03/22 08:49:29;;;;;;;;;;;3.90;92.30;;;;;;4995966;28;92638;-67
2021/03/22 08:51:56;;;;;;;;;;;3.90;92.30;;;;;;4994225;28;93191;-68
2021/03/22 08:54:30;;;;;;;;;;;3.90;92.30;;;;;;4999709;28;93090;-68
2021/03/22 08:57:08;;;;;;;;;;;4.00;92.20;;;;;;4994619;28;92954;-68
2021/03/22 08:59:34;;;;;;;;;;;3.90;92.30;;;;;;4998348;28;92177;-67
2021/03/22 09:02:18;;;;;;;;;;;3.90;92.30;;;;;;5000129;28;92311;-68
2021/03/22 09:04:44;;;;;;;;;;;3.90;92.20;;;;;;4999000;28;92208;-68
2021/03/22 09:07:09;;;;;;;;;;;3.90;92.20;;;;;;4999231;28;92483;-68
2021/03/22 09:09:36;;;;;;;;;;;3.90;92.30;;;;;;4998595;28;92554;-67
2021/03/22 09:12:09;;;;;;;;;;;3.90;92.30;;;;;;4997109;28;92173;-68
2021/03/22 09:14:38;;;;;;;;;;;3.90;92.30;;;;;;4999830;28;93708;-68
2021/03/22 09:17:22;;;;;;;;;;;4.00;92.30;;;;;;4994582;28;94810;-68
2021/03/22 09:19:47;;;;;;;;;;;3.90;92.30;;;;;;4999092;28;92218;-68
2021/03/22 09:22:13;;;;;;;;;;;3.90;92.30;;;;;;4999901;28;92471;-67
2021/03/22 09:24:43;;;;;;;;;;;3.90;92.20;;;;;;4999664;28;94943;-68
2021/03/22 09:27:21;;;;;;;;;;;3.90;92.20;;;;;;4999499;28;93702;-68
2021/03/22 09:29:47;;;;;;;;;;;3.90;92.20;;;;;;4994601;28;92580;-68
2021/03/22 09:32:21;;;;;;;;;;;3.90;92.20;;;;;;4995133;28;92141;-68
2021/03/22 09:34:47;;;;;;;;;;;3.90;92.20;;;;;;4995898;28;92554;-68
2021/03/22 09:37:32;;;;;;;;;;;4.00;92.20;;;;;;4995207;28;92991;-68
2021/03/22 09:39:57;;;;;;;;;;;3.90;92.20;;;;;;4995057;28;92258;-67
2021/03/22 09:42:24;;;;;;;;;;;4.00;92.20;;;;;;4994397;28;93177;-67
2021/03/22 09:44:50;;;;;;;;;;;4.00;92.20;;;;;;5001583;28;93096;-67
2021/03/22 09:47:23;;;;;;;;;;;4.00;92.10;;;;;;4998606;28;92384;-68
2021/03/22 09:49:55;;;;;;;;;;;4.00;92.10;;;;;;4994984;28;93356;-67
2021/03/22 09:52:26;;;;;;;;;;;4.00;92.10;;;;;;4999730;28;92164;-68
2021/03/22 09:54:53;;;;;;;;;;;4.00;92.10;;;;;;4998985;28;92533;-68
2021/03/22 09:57:24;;;;;;;;;;;4.10;92.10;;;;;;4996830;28;92200;-67
2021/03/22 10:00:00;;;;;;;;;;;4.10;92.30;;;;;;4996984;28;91427;-67
2021/03/22 10:02:38;;;;;;;;;;;4.10;92.00;;;;;;4995045;28;92158;-67
2021/03/22 10:05:09;;;;;;;;;;;4.10;92.10;;;;;;4998259;28;93489;-67
2021/03/22 10:07:36;;;;;;;;;;;4.10;92.10;;;;;;5000261;28;93141;-67
2021/03/22 10:10:21;;;;;;;;;;;4.10;92.10;;;;;;4995386;28;93685;-67
2021/03/22 10:12:49;;;;;;;;;;;4.10;92.10;;;;;;4994718;28;92268;-68
2021/03/22 10:15:15;;;;;;;;;;;4.10;92.10;;;;;;4999028;28;92946;-67
2021/03/22 10:18:03;;;;;;;;;;;4.10;92.10;;;;;;4997939;28;93201;-67
2021/03/22 10:20:38;;;;;;;;;;;4.10;92.10;;;;;;4985948;28;92285;-68
2021/03/22 10:23:22;;;;;;;;;;;4.10;92.20;;;;;;4995010;28;92568;-68
2021/03/22 10:25:49;;;;;;;;;;;4.10;92.10;;;;;;4996475;28;92491;-67
2021/03/22 10:28:20;;;;;;;;;;;4.10;92.10;;;;;;4993850;28;92161;-68
2021/03/22 10:31:04;;;;;;;;;;;4.10;92.10;;;;;;5000745;28;93501;-68
2021/03/22 10:33:30;;;;;;;;;;;4.10;92.10;;;;;;4993200;28;94690;-67
2021/03/22 10:36:00;;;;;;;;;;;4.10;92.10;;;;;;4998838;28;93281;-67
2021/03/22 10:38:28;;;;;;;;;;;4.10;92.10;;;;;;4995926;28;93014;-67
2021/03/22 10:40:54;;;;;;;;;;;4.10;92.10;;;;;;4995552;28;92225;-67
2021/03/22 10:43:34;;;;;;;;;;;4.10;92.00;;;;;;4994377;28;92505;-67
2021/03/22 10:46:13;;;;;;;;;;;4.10;92.00;;;;;;4994409;28;93197;-67
2021/03/22 10:48:38;;;;;;;;;;;4.10;92.10;;;;;;4996241;28;92146;-67
2021/03/22 10:51:06;;;;;;;;;;;4.10;92.10;;;;;;4995846;28;91998;-67
2021/03/22 10:53:32;;;;;;;;;;;4.10;92.10;;;;;;5000979;28;92895;-67
2021/03/22 10:56:12;;;;;;;;;;;4.00;92.10;;;;;;4995240;28;93715;-67
2021/03/22 10:58:38;;;;;;;;;;;4.00;92.10;;;;;;4991559;28;94078;-67
2021/03/22 11:01:04;;;;;;;;;;;4.00;92.10;;;;;;4993501;28;92287;-67
2021/03/22 11:03:31;;;;;;;;;;;4.00;92.10;;;;;;4995757;28;93003;-67
2021/03/22 11:05:56;;;;;;;;;;;4.00;92.00;;;;;;4997311;28;93265;-67
2021/03/22 11:08:24;;;;;;;;;;;4.00;92.00;;;;;;4996586;28;92169;-67
2021/03/22 11:10:56;;;;;;;;;;;4.00;92.10;;;;;;4994725;28;92168;-67
2021/03/22 11:13:25;;;;;;;;;;;4.00;92.10;;;;;;4993317;28;93583;-67
2021/03/22 11:15:51;;;;;;;;;;;4.00;92.10;;;;;;4997410;28;91470;-67
2021/03/22 11:18:17;;;;;;;;;;;4.00;92.10;;;;;;4992356;28;92832;-67
2021/03/22 11:20:44;;;;;;;;;;;4.00;92.10;;;;;;4997561;28;92240;-68
2021/03/22 11:23:18;;;;;;;;;;;4.00;92.10;;;;;;4996519;28;93142;-67
2021/03/22 11:25:44;;;;;;;;;;;4.00;92.10;;;;;;4993782;28;94037;-67
2021/03/22 11:28:12;;;;;;;;;;;4.00;92.10;;;;;;4996646;28;93795;-67
2021/03/22 11:30:38;;;;;;;;;;;4.00;92.10;;;;;;4994058;28;92449;-67
2021/03/22 11:33:07;;;;;;;;;;;4.00;92.10;;;;;;4992757;28;92693;-67
2021/03/22 11:35:33;;;;;;;;;;;4.00;92.10;;;;;;4993989;28;92198;-67
2021/03/22 11:38:02;;;;;;;;;;;4.10;92.10;;;;;;4996491;28;92610;-67
2021/03/22 11:40:28;;;;;;;;;;;4.00;92.10;;;;;;4995815;28;91486;-67
2021/03/22 11:42:54;;;;;;;;;;;4.10;92.10;;;;;;4993696;28;92155;-67
2021/03/22 11:45:24;;;;;;;;;;;4.10;92.10;;;;;;4993978;28;93242;-67
2021/03/22 11:47:50;;;;;;;;;;;4.10;92.10;;;;;;4994943;28;93161;-67
2021/03/22 11:50:22;;;;;;;;;;;4.10;92.20;;;;;;4995125;28;93466;-67
2021/03/22 11:52:59;;;;;;;;;;;4.00;92.20;;;;;;4992824;28;92491;-67
2021/03/22 11:55:30;;;;;;;;;;;4.00;92.10;;;;;;4997449;28;93166;-67
2021/03/22 11:57:56;;;;;;;;;;;4.10;92.20;;;;;;4998579;28;92665;-67
2021/03/22 12:00:22;;;;;;;;;;;4.10;92.20;;;;;;4995450;28;92274;-67
2021/03/22 12:02:51;;;;;;;;;;;4.10;92.20;;;;;;4994118;28;94423;-67
2021/03/22 12:05:26;;;;;;;;;;;4.10;92.20;;;;;;4994365;28;92468;-67
2021/03/22 12:07:52;;;;;;;;;;;4.10;92.20;;;;;;4994823;28;92180;-67
2021/03/22 12:10:31;;;;;;;;;;;4.10;92.20;;;;;;4993968;28;92215;-67
2021/03/22 12:12:58;;;;;;;;;;;4.10;92.30;;;;;;4993566;28;94082;-67
2021/03/22 12:15:24;;;;;;;;;;;4.10;92.20;;;;;;4992096;28;92998;-67
2021/03/22 12:17:53;;;;;;;;;;;4.10;92.20;;;;;;4994785;28;93554;-67
2021/03/22 12:20:24;;;;;;;;;;;4.10;92.20;;;;;;4994611;28;95402;-67
2021/03/22 12:22:50;;;;;;;;;;;4.10;92.30;;;;;;4992222;28;92465;-67
2021/03/22 12:25:17;;;;;;;;;;;4.00;92.20;;;;;;4994778;28;93900;-67
2021/03/22 12:27:42;;;;;;;;;;;4.10;92.20;;;;;;4995995;28;92195;-67
2021/03/22 12:30:09;;;;;;;;;;;4.10;92.20;;;;;;4994306;28;93020;-67
2021/03/22 12:32:34;;;;;;;;;;;4.10;92.20;;;;;;4993150;28;92656;-67
2021/03/22 12:35:00;;;;;;;;;;;4.10;92.30;;;;;;4993051;28;92190;-67
2021/03/22 12:37:27;;;;;;;;;;;4.10;92.20;;;;;;4991449;28;93163;-67
2021/03/22 12:39:53;;;;;;;;;;;4.10;92.20;;;;;;4995293;28;92542;-67
2021/03/22 12:42:19;;;;;;;;;;;4.10;92.10;;;;;;4998142;28;92264;-67
2021/03/22 12:44:44;;;;;;;;;;;4.10;92.10;;;;;;4992983;28;92808;-67
2021/03/22 12:47:15;;;;;;;;;;;4.10;92.10;;;;;;4991315;28;92242;-67
2021/03/22 12:49:41;;;;;;;;;;;4.10;92.10;;;;;;4991754;28;92392;-67
2021/03/22 12:52:06;;;;;;;;;;;4.10;92.10;;;;;;4992124;28;92743;-67
2021/03/22 12:54:32;;;;;;;;;;;4.10;92.10;;;;;;4993400;28;91441;-67
2021/03/22 12:56:57;;;;;;;;;;;4.10;92.10;;;;;;4991958;28;92231;-67
2021/03/22 12:59:49;;;;;;;;;;;4.10;92.10;;;;;;4991520;28;93475;-67
2021/03/22 13:02:16;;;;;;;;;;;4.20;92.30;;;;;;4989786;28;94729;-67
2021/03/22 13:04:42;;;;;;;;;;;4.10;92.10;;;;;;4999975;28;93984;-67
2021/03/22 13:07:08;;;;;;;;;;;4.20;92.10;;;;;;4997897;28;92239;-67
2021/03/22 13:09:34;;;;;;;;;;;4.20;92.10;;;;;;4996448;28;92542;-67
2021/03/22 13:11:59;;;;;;;;;;;4.20;92.10;;;;;;4994715;28;92694;-67
2021/03/22 13:14:25;;;;;;;;;;;4.10;92.10;;;;;;4995960;28;93168;-67
2021/03/22 13:16:52;;;;;;;;;;;4.20;92.10;;;;;;4998686;28;93326;-67
2021/03/22 13:19:18;;;;;;;;;;;4.10;92.10;;;;;;4998310;28;91982;-67
2021/03/22 13:21:44;;;;;;;;;;;4.20;92.10;;;;;;4997920;28;92167;-67
2021/03/22 13:24:11;;;;;;;;;;;4.20;92.10;;;;;;4995916;28;92739;-67
2021/03/22 13:26:36;;;;;;;;;;;4.20;92.10;;;;;;4998503;28;95543;-67
2021/03/22 13:29:03;;;;;;;;;;;4.20;92.00;;;;;;4999601;28;93334;-67
2021/03/22 13:31:32;;;;;;;;;;;4.20;92.10;;;;;;4997408;28;93071;-67
2021/03/22 13:33:57;;;;;;;;;;;4.20;92.10;;;;;;4997730;28;93953;-67
2021/03/22 13:36:23;;;;;;;;;;;4.20;92.10;;;;;;4999871;28;92210;-67
2021/03/22 13:38:49;;;;;;;;;;;4.20;92.00;;;;;;4998771;28;93216;-67
2021/03/22 13:41:34;;;;;;;;;;;4.20;92.00;;;;;;4998522;28;92207;-67
2021/03/22 13:44:02;;;;;;;;;;;4.20;92.00;;;;;;4999678;28;92432;-67
2021/03/22 13:46:29;;;;;;;;;;;4.20;92.00;;;;;;4996128;28;92164;-67
2021/03/22 13:48:54;;;;;;;;;;;4.20;92.00;;;;;;4997787;28;92191;-67
2021/03/22 13:51:22;;;;;;;;;;;4.20;92.00;;;;;;4994646;28;94474;-67
2021/03/22 13:53:48;;;;;;;;;;;4.20;92.00;;;;;;4997237;28;92196;-67
2021/03/22 13:56:13;;;;;;;;;;;4.20;92.00;;;;;;4997404;28;92282;-67
2021/03/22 13:58:39;;;;;;;;;;;4.20;92.00;;;;;;4996275;28;92475;-67
2021/03/22 14:01:04;;;;;;;;;;;4.20;92.00;;;;;;4995825;28;92297;-67
2021/03/22 14:03:30;;;;;;;;;;;4.20;92.00;;;;;;4996191;28;92373;-67
2021/03/22 14:05:57;;;;;;;;;;;4.20;92.00;;;;;;4995794;28;93149;-68
2021/03/22 14:08:24;;;;;;;;;;;4.20;92.00;;;;;;4997066;28;92815;-67
2021/03/22 14:10:49;;;;;;;;;;;4.20;92.20;;;;;;4998030;28;93318;-67
2021/03/22 14:13:17;;;;;;;;;;;4.20;92.00;;;;;;4997779;28;92198;-67
2021/03/22 14:15:43;;;;;;;;;;;4.20;92.10;;;;;;4992357;28;93209;-67
2021/03/22 14:18:10;;;;;;;;;;;4.20;92.10;;;;;;4998419;28;92758;-67
2021/03/22 14:20:36;;;;;;;;;;;4.20;92.10;;;;;;4995880;28;92215;-68
2021/03/22 14:23:02;;;;;;;;;;;4.10;92.10;;;;;;4993536;28;95833;-67
2021/03/22 14:25:28;;;;;;;;;;;4.20;92.00;;;;;;4994644;28;93926;-67
2021/03/22 14:27:54;;;;;;;;;;;4.20;92.10;;;;;;4998872;28;93840;-67
2021/03/22 14:30:22;;;;;;;;;;;4.20;92.00;;;;;;5000111;28;92332;-67
2021/03/22 14:32:47;;;;;;;;;;;4.20;92.00;;;;;;4994615;28;91443;-67
2021/03/22 14:35:13;;;;;;;;;;;4.20;92.10;;;;;;4992664;28;95923;-68
2021/03/22 14:37:39;;;;;;;;;;;4.20;92.10;;;;;;4994753;28;93091;-68
2021/03/22 14:40:05;;;;;;;;;;;4.20;92.10;;;;;;4998061;28;93097;-68
2021/03/22 14:42:31;;;;;;;;;;;4.20;92.10;;;;;;4996755;28;95599;-68